createdAt,value
2022-09-23T00:00:21.441Z,35.16
2022-09-23T00:02:49.862Z,35.69
2022-09-23T00:05:17.528Z,35.11
2022-09-23T00:07:46.091Z,35.21
2022-09-23T00:10:13.685Z,35.27
2022-09-23T00:12:41.322Z,35.56
2022-09-23T00:15:11.164Z,35.82
2022-09-23T00:17:40.450Z,35.68
2022-09-23T00:20:09.322Z,35.44
2022-09-23T00:22:37.524Z,35.89
2022-09-23T00:25:05.512Z,35.50
2022-09-23T00:27:33.875Z,35.92
2022-09-23T00:30:01.527Z,36.11
2022-09-23T00:32:29.246Z,35.73
2022-09-23T00:34:58.194Z,36.09
2022-09-23T00:37:26.052Z,35.79
2022-09-23T00:39:53.632Z,35.62
2022-09-23T00:42:22.341Z,36.10
2022-09-23T00:44:51.089Z,36.26
2022-09-23T00:47:21.722Z,35.78
2022-09-23T00:49:52.072Z,35.94
2022-09-23T00:52:22.577Z,35.90
2022-09-23T00:54:52.801Z,36.16
2022-09-23T00:57:20.895Z,35.97
2022-09-23T00:59:49.079Z,36.40
2022-09-23T01:02:17.417Z,35.96
2022-09-23T01:04:45.537Z,36.43
2022-09-23T01:07:13.704Z,36.42
2022-09-23T01:09:42.748Z,36.08
2022-09-23T01:12:17.520Z,35.69
2022-09-23T01:14:49.439Z,35.96
2022-09-23T01:17:20.377Z,36.08
2022-09-23T01:19:58.826Z,36.16
2022-09-23T01:22:29.269Z,36.29
2022-09-23T01:25:10.732Z,36.20
2022-09-23T01:27:43.274Z,35.93
2022-09-23T01:30:17.840Z,36.38
2022-09-23T01:33:00.970Z,36.29
2022-09-23T01:35:31.395Z,36.46
2022-09-23T01:38:05.633Z,36.48
2022-09-23T01:40:38.232Z,36.26
2022-09-23T01:43:08.846Z,36.25
2022-09-23T01:45:39.953Z,36.06
2022-09-23T01:48:13.952Z,36.49
2022-09-23T01:50:57.446Z,36.09
2022-09-23T01:53:29.633Z,36.35
2022-09-23T01:56:00.258Z,36.35
2022-09-23T01:58:30.216Z,36.21
2022-09-23T02:01:00.394Z,36.35
2022-09-23T02:03:32.379Z,36.34
2022-09-23T02:06:02.433Z,36.37
2022-09-23T02:08:32.926Z,36.38
2022-09-23T02:11:04.660Z,36.58
2022-09-23T02:13:36.253Z,36.33
2022-09-23T02:16:08.807Z,36.13
2022-09-23T02:18:42.123Z,36.54
2022-09-23T02:21:10.583Z,36.75
2022-09-23T02:23:40.887Z,36.47
2022-09-23T02:26:13.129Z,37.24
2022-09-23T02:28:47.037Z,37.39
2022-09-23T02:31:17.538Z,36.75
2022-09-23T02:33:52.186Z,36.83
2022-09-23T02:36:26.074Z,36.83
2022-09-23T02:38:57.504Z,36.48
2022-09-23T02:41:29.781Z,36.50
2022-09-23T02:44:01.462Z,36.72
2022-09-23T02:46:29.906Z,36.67
2022-09-23T02:49:01.294Z,36.54
2022-09-23T02:51:29.128Z,36.56
2022-09-23T02:53:57.382Z,36.78
2022-09-23T02:56:25.051Z,36.61
2022-09-23T02:58:54.593Z,36.84
2022-09-23T03:01:31.393Z,36.72
2022-09-23T03:04:08.601Z,36.59
2022-09-23T03:06:43.057Z,36.70
2022-09-23T03:09:14.939Z,37.07
2022-09-23T03:11:44.151Z,36.65
2022-09-23T03:14:18.031Z,37.35
2022-09-23T03:16:50.399Z,37.28
2022-09-23T03:19:24.898Z,37.54
2022-09-23T03:21:57.353Z,37.04
2022-09-23T03:24:26.025Z,37.17
2022-09-23T03:26:54.920Z,37.06
2022-09-23T03:29:23.826Z,37.34
2022-09-23T03:31:52.194Z,36.90
2022-09-23T03:34:22.518Z,37.41
2022-09-23T03:36:53.536Z,37.79
2022-09-23T03:39:28.311Z,37.35
2022-09-23T03:41:58.545Z,37.35
2022-09-23T03:44:29.122Z,37.42
2022-09-23T03:46:59.309Z,37.38
2022-09-23T03:49:29.162Z,37.45
2022-09-23T03:51:56.807Z,37.21
2022-09-23T03:54:24.379Z,37.14
2022-09-23T03:56:51.956Z,37.45
2022-09-23T03:59:19.534Z,37.69
2022-09-23T04:01:47.152Z,37.29
2022-09-23T04:04:14.795Z,37.51
2022-09-23T04:06:43.914Z,37.64
2022-09-23T04:09:11.556Z,37.10
2022-09-23T04:11:39.117Z,37.33
2022-09-23T04:14:06.882Z,37.13
2022-09-23T04:16:34.571Z,37.36
2022-09-23T04:19:02.237Z,37.51
2022-09-23T04:21:31.550Z,37.85
2022-09-23T04:24:00.463Z,37.78
2022-09-23T04:26:46.840Z,37.54
2022-09-23T04:29:14.539Z,37.67
2022-09-23T04:31:42.179Z,37.55
2022-09-23T04:34:16.029Z,37.97
2022-09-23T04:36:44.480Z,37.76
2022-09-23T04:39:14.880Z,38.13
2022-09-23T04:41:42.495Z,37.91
2022-09-23T04:44:10.154Z,37.80
2022-09-23T04:49:20.241Z,37.81
2022-09-23T04:51:47.889Z,38.09
2022-09-23T04:54:15.902Z,38.43
2022-09-23T04:56:43.624Z,38.02
2022-09-23T04:59:11.244Z,37.92
2022-09-23T05:01:39.087Z,38.12
2022-09-23T05:04:08.576Z,38.27
2022-09-23T05:06:38.266Z,38.25
2022-09-23T05:09:07.092Z,38.01
2022-09-23T05:11:34.990Z,37.69
2022-09-23T05:14:03.030Z,37.82
2022-09-23T05:16:30.700Z,37.82
2022-09-23T05:18:58.639Z,37.74
2022-09-23T05:21:27.514Z,38.14
2022-09-23T05:23:58.900Z,38.07
2022-09-23T05:26:27.157Z,37.81
2022-09-23T05:28:55.107Z,38.05
2022-09-23T05:31:23.526Z,37.85
2022-09-23T05:33:52.466Z,38.18
2022-09-23T05:36:21.205Z,38.08
2022-09-23T05:38:50.213Z,37.79
2022-09-23T05:41:20.703Z,37.95
2022-09-23T05:43:48.302Z,37.53
2022-09-23T05:46:17.020Z,37.85
2022-09-23T05:48:45.819Z,38.05
2022-09-23T05:51:14.980Z,37.87
2022-09-23T05:53:45.321Z,37.90
2022-09-23T05:56:13.449Z,37.96
2022-09-23T05:58:42.456Z,38.13
2022-09-23T06:01:10.576Z,38.18
2022-09-23T06:03:38.176Z,38.13
2022-09-23T06:06:05.803Z,38.17
2022-09-23T06:08:34.261Z,38.72
2022-09-23T06:11:07.068Z,38.12
2022-09-23T06:13:35.874Z,38.10
2022-09-23T06:16:04.968Z,38.21
2022-09-23T06:18:32.801Z,38.23
2022-09-23T06:21:01.593Z,38.22
2022-09-23T06:23:31.016Z,38.40
2022-09-23T06:26:02.227Z,38.68
2022-09-23T06:28:32.143Z,38.57
2022-09-23T06:31:00.255Z,38.25
2022-09-23T06:33:36.248Z,38.19
2022-09-23T06:36:06.009Z,38.72
2022-09-23T06:38:34.641Z,38.67
2022-09-23T06:41:03.175Z,38.34
2022-09-23T06:43:31.160Z,38.64
2022-09-23T06:46:00.193Z,39.01
2022-09-23T06:48:29.662Z,39.18
2022-09-23T06:50:59.787Z,39.42
2022-09-23T06:53:27.398Z,39.66
2022-09-23T06:55:59.153Z,39.73
2022-09-23T06:58:27.625Z,40.03
2022-09-23T07:00:55.209Z,39.78
2022-09-23T07:03:22.838Z,39.51
2022-09-23T07:05:55.220Z,39.55
2022-09-23T07:08:23.037Z,39.15
2022-09-23T07:10:52.324Z,39.14
2022-09-23T07:13:20.052Z,39.13
2022-09-23T07:15:50.698Z,38.80
2022-09-23T07:18:18.830Z,38.85
2022-09-23T07:20:46.999Z,38.17
2022-09-23T07:23:17.544Z,38.00
2022-09-23T07:25:46.733Z,37.96
2022-09-23T07:28:14.291Z,37.66
2022-09-23T07:30:53.720Z,37.74
2022-09-23T07:33:31.800Z,37.00
2022-09-23T07:36:00.383Z,36.79
2022-09-23T07:38:31.434Z,36.22
2022-09-23T07:41:03.626Z,36.16
2022-09-23T07:43:32.399Z,36.01
2022-09-23T07:46:00.686Z,35.91
2022-09-23T07:48:33.255Z,36.09
2022-09-23T07:51:02.075Z,35.58
2022-09-23T07:53:31.806Z,35.67
2022-09-23T07:55:59.425Z,35.75
2022-09-23T07:58:27.291Z,35.73
2022-09-23T08:00:54.965Z,35.82
2022-09-23T08:03:22.899Z,35.97
2022-09-23T08:05:50.692Z,35.52
2022-09-23T08:08:18.239Z,35.86
2022-09-23T08:10:47.246Z,35.98
2022-09-23T08:13:14.819Z,35.88
2022-09-23T08:15:44.254Z,36.00
2022-09-23T08:18:11.941Z,35.72
2022-09-23T08:20:47.344Z,35.44
2022-09-23T08:23:17.078Z,35.84
2022-09-23T08:25:47.037Z,35.74
2022-09-23T08:28:19.127Z,35.32
2022-09-23T08:30:49.451Z,35.40
2022-09-23T08:33:22.522Z,35.87
2022-09-23T08:35:51.276Z,35.35
2022-09-23T08:38:18.860Z,35.37
2022-09-23T08:40:48.362Z,35.36
2022-09-23T08:43:23.193Z,35.64
2022-09-23T08:45:51.990Z,35.97
2022-09-23T08:48:23.654Z,35.63
2022-09-23T08:50:53.240Z,35.58
2022-09-23T08:53:25.456Z,35.93
2022-09-23T08:55:55.208Z,35.46
2022-09-23T08:58:31.006Z,35.75
2022-09-23T09:01:04.228Z,36.09
2022-09-23T09:03:35.578Z,35.97
2022-09-23T09:06:03.911Z,36.01
2022-09-23T09:08:33.760Z,35.85
2022-09-23T09:11:01.673Z,35.47
2022-09-23T09:13:33.001Z,35.70
2022-09-23T09:16:11.337Z,35.65
2022-09-23T09:18:40.672Z,35.49
2022-09-23T09:21:12.479Z,35.87
2022-09-23T09:23:44.649Z,35.48
2022-09-23T09:26:13.049Z,35.50
2022-09-23T09:28:44.380Z,35.85
2022-09-23T09:31:21.353Z,35.53
2022-09-23T09:34:05.564Z,35.70
2022-09-23T09:36:37.102Z,35.48
2022-09-23T09:39:05.045Z,35.51
2022-09-23T09:41:32.708Z,35.50
2022-09-23T09:44:03.798Z,35.92
2022-09-23T09:46:47.472Z,35.90
2022-09-23T09:49:23.281Z,35.40
2022-09-23T09:52:12.309Z,35.70
2022-09-23T09:54:40.107Z,35.45
2022-09-23T09:57:13.970Z,35.33
2022-09-23T09:59:44.060Z,35.05
2022-09-23T10:02:21.449Z,35.27
2022-09-23T10:04:55.086Z,35.34
2022-09-23T10:07:25.588Z,35.80
2022-09-23T10:09:55.871Z,35.94
2022-09-23T10:12:45.109Z,35.63
2022-09-23T10:15:27.313Z,35.23
2022-09-23T10:17:55.361Z,35.38
2022-09-23T10:20:25.822Z,35.55
2022-09-23T10:22:57.033Z,35.69
2022-09-23T10:25:26.648Z,35.31
2022-09-23T10:27:54.586Z,35.27
2022-09-23T10:30:24.336Z,35.44
2022-09-23T10:32:53.107Z,35.69
2022-09-23T10:35:22.488Z,35.21
2022-09-23T10:37:51.122Z,35.38
2022-09-23T10:40:38.365Z,35.13
2022-09-23T10:43:42.681Z,35.16
2022-09-23T10:46:33.851Z,35.37
2022-09-23T10:49:12.196Z,35.51
2022-09-23T10:51:45.561Z,34.98
2022-09-23T10:54:18.857Z,34.85
2022-09-23T10:56:48.650Z,34.87
2022-09-23T10:59:41.142Z,35.00
2022-09-23T11:02:18.115Z,34.80
2022-09-23T11:05:00.910Z,34.92
2022-09-23T11:07:35.056Z,34.90
2022-09-23T11:10:28.945Z,33.95
2022-09-23T11:13:07.725Z,34.16
2022-09-23T11:15:39.584Z,34.73
2022-09-23T11:18:17.674Z,34.28
2022-09-23T11:20:48.975Z,34.79
2022-09-23T11:23:23.714Z,34.45
2022-09-23T11:25:55.249Z,34.18
2022-09-23T11:28:31.865Z,34.46
2022-09-23T11:31:05.569Z,34.04
2022-09-23T11:33:45.124Z,34.29
2022-09-23T11:36:16.441Z,34.31
2022-09-23T11:38:47.144Z,33.69
2022-09-23T11:41:18.630Z,33.84
2022-09-23T11:43:51.353Z,33.68
2022-09-23T11:46:24.749Z,33.54
2022-09-23T11:48:57.129Z,33.40
2022-09-23T11:51:28.073Z,33.38
2022-09-23T11:53:58.554Z,33.53
2022-09-23T11:56:34.633Z,33.46
2022-09-23T11:59:07.196Z,33.27
2022-09-23T12:01:39.053Z,33.30
2022-09-23T12:04:20.320Z,33.12
2022-09-23T12:06:50.352Z,32.66
2022-09-23T12:09:41.086Z,33.05
2022-09-23T12:12:14.879Z,32.81
2022-09-23T12:14:50.164Z,32.38
2022-09-23T12:17:24.343Z,32.79
2022-09-23T12:20:16.354Z,32.85
2022-09-23T12:22:52.724Z,32.31
2022-09-23T12:25:35.495Z,32.25
2022-09-23T12:28:05.302Z,32.30
2022-09-23T12:30:35.489Z,32.58
2022-09-23T12:33:08.924Z,32.69
2022-09-23T12:35:38.970Z,32.31
2022-09-23T12:38:14.826Z,32.44
2022-09-23T12:40:44.465Z,32.00
2022-09-23T12:43:19.132Z,32.03
2022-09-23T12:45:48.084Z,32.40
2022-09-23T12:48:44.483Z,32.17
2022-09-23T12:51:21.658Z,32.03
2022-09-23T12:54:01.614Z,31.92
2022-09-23T12:56:47.997Z,32.05
2022-09-23T12:59:25.151Z,32.28
2022-09-23T13:01:53.179Z,32.05
2022-09-23T13:04:52.530Z,32.26
2022-09-23T13:07:23.909Z,31.92
2022-09-23T13:09:54.424Z,31.60
2022-09-23T13:12:25.243Z,31.94
2022-09-23T13:14:54.445Z,32.19
2022-09-23T13:17:26.702Z,31.65
2022-09-23T13:20:01.591Z,32.13
2022-09-23T13:22:44.225Z,32.18
2022-09-23T13:25:20.579Z,31.56
2022-09-23T13:27:49.700Z,31.58
2022-09-23T13:30:25.068Z,32.18
2022-09-23T13:33:01.088Z,31.84
2022-09-23T13:35:33.344Z,31.79
2022-09-23T13:38:10.145Z,32.10
2022-09-23T13:40:40.237Z,31.77
2022-09-23T13:43:12.710Z,31.63
2022-09-23T13:45:43.265Z,31.58
2022-09-23T13:48:13.208Z,31.76
2022-09-23T13:50:44.296Z,31.60
2022-09-23T13:53:14.296Z,31.78
2022-09-23T13:55:43.319Z,31.92
2022-09-23T13:58:17.361Z,31.82
2022-09-23T14:00:45.073Z,32.19
2022-09-23T14:03:19.344Z,32.31
2022-09-23T14:05:47.237Z,32.25
2022-09-23T14:08:14.806Z,31.94
2022-09-23T14:10:46.330Z,31.91
2022-09-23T14:13:15.911Z,32.16
2022-09-23T14:15:43.674Z,31.67
2022-09-23T14:18:18.084Z,32.13
2022-09-23T14:20:46.426Z,32.16
2022-09-23T14:23:14.679Z,31.78
2022-09-23T14:25:45.325Z,31.93
2022-09-23T14:28:15.465Z,31.74
2022-09-23T14:30:46.259Z,32.08
2022-09-23T14:33:16.722Z,32.07
2022-09-23T14:35:47.963Z,31.86
2022-09-23T14:38:38.996Z,31.53
2022-09-23T14:41:18.064Z,31.39
2022-09-23T14:43:54.647Z,31.32
2022-09-23T14:46:23.525Z,31.64
2022-09-23T14:48:55.906Z,31.67
2022-09-23T14:51:29.407Z,31.72
2022-09-23T14:53:57.139Z,31.79
2022-09-23T14:56:26.107Z,31.27
2022-09-23T14:58:55.054Z,31.22
2022-09-23T15:01:34.689Z,31.58
2022-09-23T15:04:11.014Z,31.62
2022-09-23T15:06:39.168Z,31.65
2022-09-23T15:09:07.483Z,31.09
2022-09-23T15:11:37.230Z,31.66
2022-09-23T15:14:33.114Z,31.18
2022-09-23T15:16:54.439Z,31.53
2022-09-23T15:19:23.232Z,31.29
2022-09-23T15:21:53.597Z,31.58
2022-09-23T15:24:37.997Z,31.34
2022-09-23T15:27:12.966Z,31.14
2022-09-23T15:29:40.637Z,31.10
2022-09-23T15:32:08.523Z,31.73
2022-09-23T15:34:37.124Z,31.57
2022-09-23T15:37:05.269Z,31.17
2022-09-23T15:39:36.206Z,31.23
2022-09-23T15:42:04.237Z,31.61
2022-09-23T15:44:33.230Z,31.30
2022-09-23T15:47:01.236Z,31.65
2022-09-23T15:49:30.316Z,31.43
2022-09-23T15:52:00.126Z,31.71
2022-09-23T15:54:28.133Z,31.47
2022-09-23T15:56:56.372Z,31.62
2022-09-23T15:59:24.136Z,31.71
2022-09-23T16:01:53.673Z,31.38
2022-09-23T16:04:21.721Z,31.64
2022-09-23T16:06:49.326Z,31.40
2022-09-23T16:09:17.125Z,31.69
2022-09-23T16:11:46.111Z,31.31
2022-09-23T16:14:15.458Z,31.23
2022-09-23T16:16:44.854Z,31.72
2022-09-23T16:19:14.393Z,31.60
2022-09-23T16:21:42.003Z,31.29
2022-09-23T16:24:15.123Z,31.75
2022-09-23T16:26:43.249Z,31.27
2022-09-23T16:29:11.571Z,31.75
2022-09-23T16:31:39.720Z,31.32
2022-09-23T16:34:07.423Z,31.53
2022-09-23T16:36:39.201Z,31.69
2022-09-23T16:39:08.993Z,31.35
2022-09-23T16:41:36.905Z,31.63
2022-09-23T16:44:06.201Z,31.73
2022-09-23T16:46:34.301Z,31.85
2022-09-23T16:49:01.949Z,31.78
2022-09-23T16:51:30.363Z,31.92
2022-09-23T16:53:59.988Z,31.37
2022-09-23T16:56:29.198Z,31.39
2022-09-23T16:58:57.398Z,31.52
2022-09-23T17:01:43.540Z,31.89
2022-09-23T17:04:11.614Z,31.58
2022-09-23T17:06:43.413Z,31.65
2022-09-23T17:09:12.524Z,31.96
2022-09-23T17:11:40.274Z,31.86
2022-09-23T17:14:07.971Z,31.60
2022-09-23T17:16:35.849Z,32.01
2022-09-23T17:19:06.664Z,32.11
2022-09-23T17:21:34.520Z,32.12
2022-09-23T17:24:02.590Z,32.17
2022-09-23T17:26:31.631Z,32.10
2022-09-23T17:29:01.574Z,32.08
2022-09-23T17:31:30.756Z,32.23
2022-09-23T17:33:58.380Z,32.09
2022-09-23T17:36:27.318Z,31.79
2022-09-23T17:38:55.539Z,32.17
2022-09-23T17:41:23.193Z,31.70
2022-09-23T17:43:56.638Z,31.74
2022-09-23T17:46:24.279Z,31.87
2022-09-23T17:48:55.300Z,31.82
2022-09-23T17:51:24.958Z,32.22
2022-09-23T17:53:52.633Z,32.41
2022-09-23T17:56:21.140Z,32.41
2022-09-23T17:58:51.078Z,31.96
2022-09-23T18:01:21.719Z,32.01
2022-09-23T18:03:50.475Z,32.21
2022-09-23T18:06:21.538Z,32.46
2022-09-23T18:08:50.240Z,32.60
2022-09-23T18:11:19.091Z,32.15
2022-09-23T18:13:50.920Z,32.33
2022-09-23T18:16:20.385Z,32.23
2022-09-23T18:18:52.006Z,32.80
2022-09-23T18:21:21.103Z,32.63
2022-09-23T18:23:49.130Z,32.90
2022-09-23T18:26:17.588Z,32.56
2022-09-23T18:28:46.714Z,32.55
2022-09-23T18:31:15.501Z,32.94
2022-09-23T18:33:47.398Z,32.63
2022-09-23T18:36:15.653Z,33.25
2022-09-23T18:38:43.346Z,33.14
2022-09-23T18:41:11.674Z,33.34
2022-09-23T18:43:43.142Z,33.47
2022-09-23T18:46:13.713Z,32.96
2022-09-23T18:48:59.406Z,33.12
2022-09-23T18:51:29.560Z,33.71
2022-09-23T18:53:58.597Z,33.55
2022-09-23T18:56:27.255Z,33.30
2022-09-23T18:58:55.834Z,33.70
2022-09-23T19:01:27.214Z,33.29
2022-09-23T19:03:55.891Z,33.30
2022-09-23T19:06:23.728Z,33.48
2022-09-23T19:08:53.382Z,33.59
2022-09-23T19:11:21.238Z,33.62
2022-09-23T19:13:54.330Z,33.97
2022-09-23T19:16:27.770Z,33.63
2022-09-23T19:18:55.751Z,33.78
2022-09-23T19:21:23.880Z,34.03
2022-09-23T19:23:54.232Z,33.96
2022-09-23T19:26:23.187Z,34.35
2022-09-23T19:28:51.375Z,34.25
2022-09-23T19:31:22.283Z,33.93
2022-09-23T19:33:56.703Z,34.29
2022-09-23T19:36:25.286Z,34.58
2022-09-23T19:38:55.773Z,34.51
2022-09-23T19:41:23.852Z,34.24
2022-09-23T19:43:53.208Z,34.65
2022-09-23T19:46:21.689Z,34.26
2022-09-23T19:48:49.646Z,34.42
2022-09-23T19:51:19.354Z,34.39
2022-09-23T19:53:46.997Z,34.89
2022-09-23T19:56:18.092Z,34.98
2022-09-23T19:58:47.506Z,35.11
2022-09-23T20:01:16.235Z,34.87
2022-09-23T20:03:44.724Z,34.74
2022-09-23T20:06:12.299Z,34.85
2022-09-23T20:08:40.046Z,35.26
2022-09-23T20:11:10.338Z,35.45
2022-09-23T20:13:41.925Z,35.05
2022-09-23T20:16:11.194Z,35.16
2022-09-23T20:18:39.380Z,35.53
2022-09-23T20:21:07.861Z,35.24
2022-09-23T20:23:35.677Z,35.60
2022-09-23T20:26:22.875Z,35.36
2022-09-23T20:28:52.359Z,35.48
2022-09-23T20:31:21.124Z,35.87
2022-09-23T20:33:50.806Z,35.47
2022-09-23T20:36:18.581Z,35.66
2022-09-23T20:38:46.293Z,35.69
2022-09-23T20:41:15.080Z,36.03
2022-09-23T20:43:43.786Z,36.25
2022-09-23T20:46:15.247Z,35.86
2022-09-23T20:48:43.203Z,36.17
2022-09-23T20:51:11.272Z,35.79
2022-09-23T20:53:39.084Z,36.18
2022-09-23T20:56:07.064Z,36.11
2022-09-23T20:58:36.444Z,36.03
2022-09-23T21:01:05.219Z,36.48
2022-09-23T21:03:34.878Z,36.17
2022-09-23T21:06:03.476Z,36.15
2022-09-23T21:08:31.512Z,36.66
2022-09-23T21:10:59.882Z,36.52
2022-09-23T21:13:28.481Z,36.55
2022-09-23T21:15:56.253Z,36.77
2022-09-23T21:18:24.567Z,36.50
2022-09-23T21:20:56.861Z,36.45
2022-09-23T21:23:28.180Z,36.89
2022-09-23T21:26:00.791Z,37.01
2022-09-23T21:28:31.304Z,36.95
2022-09-23T21:30:59.560Z,36.88
2022-09-23T21:33:27.663Z,37.08
2022-09-23T21:35:57.356Z,37.14
2022-09-23T21:38:25.240Z,37.03
2022-09-23T21:40:58.174Z,37.15
2022-09-23T21:43:26.574Z,36.93
2022-09-23T21:45:58.824Z,37.50
2022-09-23T21:48:27.699Z,37.00
2022-09-23T21:50:57.721Z,37.38
2022-09-23T21:53:25.548Z,37.05
2022-09-23T21:55:53.806Z,36.99
2022-09-23T21:58:21.706Z,37.47
2022-09-23T22:00:51.313Z,37.56
2022-09-23T22:03:19.043Z,37.51
2022-09-23T22:05:46.784Z,37.89
2022-09-23T22:08:15.744Z,37.79
2022-09-23T22:10:43.725Z,37.95
2022-09-23T22:13:13.079Z,37.75
2022-09-23T22:15:41.440Z,37.50
2022-09-23T22:18:09.028Z,37.92
2022-09-23T22:20:36.694Z,37.66
2022-09-23T22:23:04.375Z,38.16
2022-09-23T22:25:33.272Z,38.23
2022-09-23T22:28:18.509Z,38.30
2022-09-23T22:31:05.271Z,37.99
2022-09-23T22:33:32.951Z,38.18
2022-09-23T22:36:03.954Z,38.12
2022-09-23T22:38:32.865Z,37.74
2022-09-23T22:41:01.891Z,37.85
2022-09-23T22:43:29.508Z,37.69
2022-09-23T22:45:57.070Z,37.97
2022-09-23T22:48:24.747Z,38.07
2022-09-23T22:50:52.563Z,38.08
2022-09-23T22:53:20.179Z,38.24
2022-09-23T22:55:57.494Z,37.80
2022-09-23T22:58:32.625Z,38.08
2022-09-23T23:01:02.448Z,38.19
2022-09-23T23:03:30.856Z,38.14
2022-09-23T23:06:00.616Z,38.10
2022-09-23T23:08:28.743Z,38.16
2022-09-23T23:10:56.794Z,38.13
2022-09-23T23:13:25.333Z,38.19
2022-09-23T23:15:54.470Z,38.25
2022-09-23T23:18:22.233Z,38.36
2022-09-23T23:20:49.876Z,38.34
2022-09-23T23:23:17.404Z,38.35
2022-09-23T23:25:45.022Z,38.18
2022-09-23T23:28:12.548Z,37.88
2022-09-23T23:30:40.143Z,38.05
2022-09-23T23:33:09.082Z,38.23
2022-09-23T23:35:37.592Z,38.00
2022-09-23T23:38:06.302Z,38.29
2022-09-23T23:40:37.773Z,38.26
2022-09-23T23:43:05.804Z,38.40
2022-09-23T23:45:33.364Z,38.79
2022-09-23T23:48:01.123Z,38.95
2022-09-23T23:50:30.020Z,38.95
2022-09-23T23:52:58.958Z,38.82
2022-09-23T23:55:26.647Z,38.80
2022-09-23T23:57:54.195Z,38.71
